createdAt,value
2023-05-08T00:00:02.792Z,49.98
2023-05-08T00:02:37.080Z,50.05
2023-05-08T00:05:08.898Z,49.92
2023-05-08T00:07:38.604Z,49.95
2023-05-08T00:10:11.120Z,49.87
2023-05-08T00:12:41.561Z,50.22
2023-05-08T00:15:11.326Z,49.88
2023-05-08T00:17:41.792Z,50.23
2023-05-08T00:20:13.188Z,50.03
2023-05-08T00:22:48.877Z,50.68
2023-05-08T00:25:18.628Z,50.67
2023-05-08T00:27:52.687Z,50.29
2023-05-08T00:30:23.461Z,49.89
2023-05-08T00:32:55.192Z,50.28
2023-05-08T00:35:26.593Z,50.11
2023-05-08T00:38:01.615Z,49.81
2023-05-08T00:40:35.178Z,49.85
2023-05-08T00:43:05.409Z,50.21
2023-05-08T00:45:46.585Z,49.89
2023-05-08T00:48:21.976Z,49.78
2023-05-08T00:50:58.730Z,50.48
2023-05-08T00:53:45.611Z,50.09
2023-05-08T00:56:26.454Z,50.16
2023-05-08T00:58:58.610Z,50.59
2023-05-08T01:01:37.116Z,50.07
2023-05-08T01:04:09.943Z,50.39
2023-05-08T01:06:47.081Z,50.62
2023-05-08T01:09:19.311Z,50.55
2023-05-08T01:12:03.562Z,50.35
2023-05-08T01:14:55.547Z,49.50
2023-05-08T01:18:04.993Z,49.54
2023-05-08T01:21:02.581Z,49.26
2023-05-08T01:23:54.388Z,49.15
2023-05-08T01:26:59.166Z,50.48
2023-05-08T01:29:54.929Z,49.80
2023-05-08T01:32:37.703Z,50.96
2023-05-08T01:35:35.184Z,51.18
2023-05-08T01:38:27.553Z,50.24
2023-05-08T01:41:11.594Z,49.71
2023-05-08T01:43:46.881Z,50.55
2023-05-08T01:46:26.420Z,50.32
2023-05-08T01:49:06.480Z,50.49
2023-05-08T01:51:49.753Z,49.52
2023-05-08T01:54:26.389Z,50.40
2023-05-08T01:56:59.093Z,49.82
2023-05-08T01:59:36.758Z,49.70
2023-05-08T02:02:10.309Z,48.94
2023-05-08T02:04:42.987Z,50.17
2023-05-08T02:07:16.788Z,49.30
2023-05-08T02:09:50.400Z,50.24
2023-05-08T02:12:20.571Z,50.24
2023-05-08T02:14:54.666Z,50.09
2023-05-08T02:17:30.266Z,49.94
2023-05-08T02:20:01.603Z,49.14
2023-05-08T02:22:34.844Z,48.94
2023-05-08T02:25:13.213Z,48.78
2023-05-08T02:27:49.113Z,49.79
2023-05-08T02:30:22.936Z,48.72
2023-05-08T02:32:59.637Z,48.39
2023-05-08T02:35:36.719Z,49.67
2023-05-08T02:38:11.760Z,49.95
2023-05-08T02:40:48.927Z,49.98
2023-05-08T02:43:19.224Z,49.94
2023-05-08T02:46:02.946Z,49.61
2023-05-08T02:48:43.866Z,49.77
2023-05-08T02:51:38.433Z,49.67
2023-05-08T02:54:26.606Z,49.49
2023-05-08T02:57:35.259Z,49.84
2023-05-08T03:00:31.370Z,49.87
2023-05-08T03:03:25.037Z,49.83
2023-05-08T03:05:59.294Z,49.83
2023-05-08T03:08:39.289Z,49.73
2023-05-08T03:11:19.794Z,49.41
2023-05-08T03:14:02.621Z,49.04
2023-05-08T03:16:36.786Z,48.47
2023-05-08T03:19:13.163Z,48.40
2023-05-08T03:21:50.178Z,48.27
2023-05-08T03:24:22.179Z,48.48
2023-05-08T03:26:53.633Z,48.04
2023-05-08T03:29:29.500Z,47.84
2023-05-08T03:32:06.242Z,47.93
2023-05-08T03:34:53.908Z,48.66
2023-05-08T03:37:26.993Z,48.54
2023-05-08T03:39:59.572Z,48.65
2023-05-08T03:42:35.665Z,48.37
2023-05-08T03:45:08.681Z,47.92
2023-05-08T03:47:38.555Z,48.01
2023-05-08T03:50:11.959Z,49.06
2023-05-08T03:52:46.696Z,47.76
2023-05-08T03:55:19.034Z,47.43
2023-05-08T03:58:26.788Z,48.23
2023-05-08T04:01:35.327Z,47.81
2023-05-08T04:04:41.965Z,48.41
2023-05-08T04:07:37.173Z,47.80
2023-05-08T04:10:10.174Z,47.95
2023-05-08T04:13:27.328Z,47.69
2023-05-08T04:16:23.239Z,47.57
2023-05-08T04:19:04.892Z,47.36
2023-05-08T04:21:37.441Z,47.07
2023-05-08T04:24:19.224Z,47.23
2023-05-08T04:26:53.490Z,47.98
2023-05-08T04:29:29.268Z,48.09
2023-05-08T04:32:05.266Z,47.19
2023-05-08T04:34:37.200Z,47.26
2023-05-08T04:37:09.825Z,47.54
2023-05-08T04:39:43.723Z,49.92
2023-05-08T04:42:18.223Z,48.78
2023-05-08T04:44:49.873Z,48.50
2023-05-08T04:47:21.767Z,48.23
2023-05-08T04:49:51.567Z,48.16
2023-05-08T04:52:23.274Z,48.07
2023-05-08T04:54:53.345Z,48.11
2023-05-08T04:57:24.867Z,48.25
2023-05-08T04:59:58.124Z,47.56
2023-05-08T05:02:31.726Z,47.48
2023-05-08T05:05:03.205Z,47.74
2023-05-08T05:07:34.779Z,48.05
2023-05-08T05:10:06.764Z,47.27
2023-05-08T05:12:37.225Z,47.92
2023-05-08T05:15:09.888Z,47.46
2023-05-08T05:17:40.603Z,47.00
2023-05-08T05:20:11.044Z,47.33
2023-05-08T05:22:48.944Z,47.46
2023-05-08T05:25:19.355Z,47.36
2023-05-08T05:27:51.078Z,46.79
2023-05-08T05:30:22.026Z,46.71
2023-05-08T05:32:51.253Z,46.83
2023-05-08T05:35:26.408Z,46.81
2023-05-08T05:37:57.620Z,47.91
2023-05-08T05:40:28.521Z,47.40
2023-05-08T05:42:57.138Z,47.63
2023-05-08T05:45:27.335Z,47.45
2023-05-08T05:47:57.002Z,46.49
2023-05-08T05:50:29.038Z,47.11
2023-05-08T05:52:59.214Z,46.71
2023-05-08T05:55:31.189Z,47.37
2023-05-08T05:58:03.418Z,47.13
2023-05-08T06:00:35.738Z,47.32
2023-05-08T06:03:06.942Z,47.14
2023-05-08T06:05:36.947Z,46.95
2023-05-08T06:08:10.265Z,47.17
2023-05-08T06:10:41.648Z,46.95
2023-05-08T06:13:12.471Z,47.48
2023-05-08T06:15:58.072Z,47.75
2023-05-08T06:18:29.632Z,47.64
2023-05-08T06:21:10.316Z,47.69
2023-05-08T06:23:39.874Z,47.62
2023-05-08T06:26:51.069Z,47.30
2023-05-08T06:30:18.498Z,48.26
2023-05-08T06:34:03.105Z,46.94
2023-05-08T06:36:51.212Z,46.69
2023-05-08T06:39:23.501Z,46.67
2023-05-08T06:42:02.388Z,46.76
2023-05-08T06:44:34.582Z,46.95
2023-05-08T06:47:05.864Z,47.76
2023-05-08T06:49:38.933Z,46.96
2023-05-08T06:52:09.694Z,47.02
2023-05-08T06:54:42.581Z,46.81
2023-05-08T06:57:18.261Z,48.87
2023-05-08T06:59:50.881Z,47.69
2023-05-08T07:02:22.766Z,47.13
2023-05-08T07:04:53.805Z,46.72
2023-05-08T07:07:26.752Z,46.69
2023-05-08T07:09:56.505Z,46.36
2023-05-08T07:12:29.938Z,46.24
2023-05-08T07:15:03.539Z,46.26
2023-05-08T07:17:38.361Z,46.33
2023-05-08T07:20:16.637Z,46.32
2023-05-08T07:22:55.877Z,46.43
2023-05-08T07:25:35.306Z,46.55
2023-05-08T07:28:12.798Z,46.09
2023-05-08T07:30:54.996Z,45.69
2023-05-08T07:33:35.377Z,45.56
2023-05-08T07:36:13.525Z,45.33
2023-05-08T07:39:08.157Z,45.87
2023-05-08T07:41:42.707Z,45.46
2023-05-08T07:44:53.790Z,45.95
2023-05-08T07:47:58.708Z,45.39
2023-05-08T07:50:38.828Z,45.48
2023-05-08T07:53:10.521Z,45.60
2023-05-08T07:56:14.655Z,45.79
2023-05-08T07:58:53.355Z,45.72
2023-05-08T08:01:34.760Z,46.20
2023-05-08T08:04:08.464Z,45.78
2023-05-08T08:06:42.416Z,45.67
2023-05-08T08:09:21.264Z,45.46
2023-05-08T08:11:55.356Z,45.44
2023-05-08T08:14:35.947Z,45.79
2023-05-08T08:17:15.929Z,46.13
2023-05-08T08:23:33.211Z,45.69
2023-05-08T08:26:05.486Z,46.19
2023-05-08T08:28:51.347Z,45.34
2023-05-08T08:31:34.838Z,45.25
2023-05-08T08:34:09.050Z,45.78
2023-05-08T08:36:56.181Z,45.36
2023-05-08T08:39:42.869Z,46.08
2023-05-08T08:42:26.569Z,45.46
2023-05-08T08:45:12.209Z,45.41
2023-05-08T08:51:05.717Z,45.59
2023-05-08T08:53:49.923Z,45.55
2023-05-08T08:56:25.547Z,45.37
2023-05-08T08:59:10.444Z,45.35
2023-05-08T09:02:16.935Z,45.75
2023-05-08T09:05:16.903Z,46.53
2023-05-08T09:08:09.791Z,46.67
2023-05-08T09:10:39.834Z,46.58
2023-05-08T09:13:31.228Z,46.47
2023-05-08T09:16:13.131Z,46.56
2023-05-08T09:18:57.832Z,46.52
2023-05-08T09:21:31.230Z,46.56
2023-05-08T09:24:07.313Z,46.22
2023-05-08T09:27:46.773Z,47.37
2023-05-08T09:30:23.060Z,46.15
2023-05-08T09:33:09.166Z,45.78
2023-05-08T09:35:41.765Z,45.55
2023-05-08T09:39:00.293Z,45.90
2023-05-08T09:42:04.636Z,45.99
2023-05-08T09:49:26.029Z,46.43
2023-05-08T09:52:06.439Z,45.85
2023-05-08T09:55:41.765Z,46.01
2023-05-08T09:58:59.393Z,45.95
2023-05-08T10:05:28.620Z,45.68
2023-05-08T10:08:21.573Z,45.92
2023-05-08T10:10:58.034Z,45.60
2023-05-08T10:13:28.652Z,45.38
2023-05-08T10:16:03.151Z,45.29
2023-05-08T10:18:43.830Z,45.25
2023-05-08T10:21:39.557Z,46.03
2023-05-08T10:24:23.505Z,46.37
2023-05-08T10:27:19.198Z,46.53
2023-05-08T10:30:02.586Z,46.57
2023-05-08T10:39:12.401Z,47.49
2023-05-08T10:42:31.769Z,47.22
2023-05-08T10:45:19.049Z,46.63
2023-05-08T10:49:06.689Z,46.40
2023-05-08T10:57:25.207Z,47.96
2023-05-08T11:03:34.335Z,47.19
2023-05-08T11:06:07.563Z,46.68
2023-05-08T11:09:00.457Z,47.02
2023-05-08T11:11:43.776Z,47.66
2023-05-08T11:14:25.909Z,47.63
2023-05-08T11:17:03.590Z,47.41
2023-05-08T11:19:35.052Z,46.24
2023-05-08T11:22:37.156Z,47.16
2023-05-08T11:25:18.341Z,47.74
2023-05-08T11:27:58.681Z,48.13
2023-05-08T11:30:39.772Z,47.96
2023-05-08T11:33:11.698Z,48.04
2023-05-08T11:36:02.367Z,48.25
2023-05-08T11:38:41.394Z,49.65
2023-05-08T11:41:33.881Z,50.37
2023-05-08T11:44:13.179Z,50.14
2023-05-08T11:46:55.010Z,50.43
2023-05-08T11:49:32.058Z,49.57
2023-05-08T11:52:07.246Z,49.53
2023-05-08T11:54:53.405Z,49.35
2023-05-08T11:57:23.749Z,49.28
2023-05-08T12:00:06.868Z,49.20
2023-05-08T12:03:23.596Z,49.99
2023-05-08T12:06:03.934Z,50.46
2023-05-08T12:08:42.164Z,50.83
2023-05-08T12:11:14.647Z,50.25
2023-05-08T12:14:06.718Z,50.24
2023-05-08T12:16:43.846Z,50.51
2023-05-08T12:19:34.137Z,50.61
2023-05-08T12:22:05.466Z,50.94
2023-05-08T12:24:37.920Z,50.63
2023-05-08T12:27:10.423Z,50.93
2023-05-08T12:30:05.790Z,50.75
2023-05-08T12:32:48.108Z,51.14
2023-05-08T12:35:29.172Z,50.99
2023-05-08T12:38:05.293Z,51.04
2023-05-08T12:40:43.488Z,51.07
2023-05-08T12:43:23.304Z,50.81
2023-05-08T12:49:08.083Z,51.64
2023-05-08T12:52:26.609Z,51.11
2023-05-08T12:55:58.548Z,51.53
2023-05-08T12:58:37.700Z,52.21
2023-05-08T13:01:17.902Z,51.10
2023-05-08T13:04:01.450Z,50.72
2023-05-08T13:06:33.305Z,50.45
2023-05-08T13:09:04.105Z,50.27
2023-05-08T13:11:44.209Z,50.43
2023-05-08T13:14:22.152Z,52.67
2023-05-08T13:16:53.648Z,51.36
2023-05-08T13:19:23.523Z,52.01
2023-05-08T13:21:58.769Z,52.65
2023-05-08T13:24:39.042Z,51.15
2023-05-08T13:32:55.975Z,51.72
2023-05-08T13:47:05.445Z,52.76
2023-05-08T13:49:38.823Z,53.03
2023-05-08T13:52:09.897Z,53.47
2023-05-08T13:54:41.880Z,53.40
2023-05-08T13:57:13.188Z,53.63
2023-05-08T13:59:43.292Z,53.71
2023-05-08T14:02:19.805Z,55.73
2023-05-08T14:04:53.891Z,54.12
2023-05-08T14:07:26.116Z,54.47
2023-05-08T14:09:59.748Z,55.74
2023-05-08T14:12:38.643Z,53.89
2023-05-08T14:15:13.451Z,53.97
2023-05-08T14:17:54.354Z,53.97
2023-05-08T14:20:24.015Z,53.69
2023-05-08T14:30:02.140Z,54.55
2023-05-08T14:32:39.149Z,54.55
2023-05-08T14:35:30.781Z,54.18
2023-05-08T14:38:22.208Z,53.75
2023-05-08T14:41:04.568Z,56.56
2023-05-08T14:43:34.432Z,54.93
2023-05-08T14:46:11.493Z,53.40
2023-05-08T14:48:43.488Z,53.45
2023-05-08T14:51:22.324Z,54.01
2023-05-08T14:53:57.998Z,53.30
2023-05-08T14:56:40.534Z,52.93
2023-05-08T14:59:23.740Z,53.05
2023-05-08T15:02:00.273Z,53.28
2023-05-08T15:04:32.049Z,53.26
2023-05-08T15:07:03.259Z,53.29
2023-05-08T15:09:43.421Z,52.96
2023-05-08T15:12:22.940Z,52.93
2023-05-08T15:14:56.526Z,52.66
2023-05-08T15:17:28.456Z,52.70
2023-05-08T15:20:06.174Z,53.07
2023-05-08T15:22:39.595Z,53.21
2023-05-08T15:25:15.406Z,53.02
2023-05-08T15:28:03.089Z,53.25
2023-05-08T15:30:35.359Z,53.05
2023-05-08T15:33:06.981Z,53.02
2023-05-08T15:35:39.892Z,53.08
2023-05-08T15:38:13.456Z,53.32
2023-05-08T15:41:02.264Z,54.01
2023-05-08T15:43:32.224Z,53.81
2023-05-08T15:46:03.931Z,53.58
2023-05-08T15:48:35.308Z,54.09
2023-05-08T15:51:13.258Z,54.20
2023-05-08T15:53:53.389Z,57.10
2023-05-08T15:56:28.411Z,55.87
2023-05-08T15:58:59.587Z,55.34
2023-05-08T16:01:40.725Z,55.51
2023-05-08T16:04:13.074Z,54.75
2023-05-08T16:06:43.363Z,54.25
2023-05-08T16:09:20.926Z,53.63
2023-05-08T16:11:54.987Z,53.83
2023-05-08T16:14:23.777Z,53.85
2023-05-08T16:16:56.057Z,53.88
2023-05-08T16:19:34.735Z,53.80
2023-05-08T16:22:06.026Z,53.85
2023-05-08T16:24:42.998Z,53.94
2023-05-08T16:27:25.426Z,54.36
2023-05-08T16:30:15.243Z,54.65
2023-05-08T16:36:37.304Z,54.99
2023-05-08T16:39:55.707Z,56.09
2023-05-08T16:42:41.696Z,55.76
2023-05-08T16:45:18.022Z,55.30
2023-05-08T16:47:59.615Z,54.63
2023-05-08T16:50:42.335Z,54.10
2023-05-08T16:53:21.994Z,53.99
2023-05-08T16:55:58.931Z,54.10
2023-05-08T16:58:32.211Z,53.99
2023-05-08T17:01:09.048Z,53.94
2023-05-08T17:03:46.844Z,54.01
2023-05-08T17:06:23.169Z,54.32
2023-05-08T17:09:01.799Z,54.24
2023-05-08T17:11:31.935Z,54.14
2023-05-08T17:14:05.738Z,54.60
2023-05-08T17:16:40.147Z,55.11
2023-05-08T17:19:11.510Z,54.69
2023-05-08T17:21:53.846Z,54.45
2023-05-08T17:24:34.935Z,54.27
2023-05-08T17:27:14.608Z,54.43
2023-05-08T17:29:53.538Z,54.36
2023-05-08T17:41:22.097Z,55.51
2023-05-08T17:47:59.921Z,55.03
2023-05-08T17:50:34.334Z,54.56
2023-05-08T17:57:04.024Z,54.74
2023-05-08T18:04:22.549Z,55.55
2023-05-08T18:07:03.484Z,54.54
2023-05-08T18:10:01.717Z,54.63
2023-05-08T18:12:34.484Z,54.79
2023-05-08T18:15:07.678Z,55.26
2023-05-08T18:17:56.348Z,57.06
2023-05-08T18:20:27.807Z,55.25
2023-05-08T18:23:10.767Z,55.66
2023-05-08T18:28:46.968Z,55.72
2023-05-08T18:31:26.902Z,55.96
2023-05-08T18:33:55.231Z,56.36
2023-05-08T18:36:23.865Z,56.45
2023-05-08T18:38:52.628Z,55.59
2023-05-08T18:41:22.253Z,55.14
2023-05-08T18:43:51.199Z,55.07
2023-05-08T18:46:20.963Z,54.95
2023-05-08T18:48:49.891Z,54.83
2023-05-08T18:51:18.638Z,56.34
2023-05-08T18:53:51.135Z,56.65
2023-05-08T18:56:21.805Z,56.02
2023-05-08T18:58:53.907Z,55.97
2023-05-08T19:01:34.293Z,55.87
2023-05-08T19:04:17.070Z,55.82
2023-05-08T19:06:46.951Z,55.98
2023-05-08T19:09:16.556Z,56.29
2023-05-08T19:11:47.731Z,56.19
2023-05-08T19:14:17.222Z,55.79
2023-05-08T19:16:47.251Z,56.25
2023-05-08T19:19:19.058Z,55.52
2023-05-08T19:21:49.210Z,56.05
2023-05-08T19:24:23.536Z,55.89
2023-05-08T19:27:00.912Z,55.49
2023-05-08T19:29:30.315Z,55.51
2023-05-08T19:31:58.994Z,55.26
2023-05-08T19:34:27.524Z,56.15
2023-05-08T19:36:56.339Z,55.47
2023-05-08T19:39:24.800Z,55.42
2023-05-08T19:41:53.455Z,55.35
2023-05-08T19:44:22.461Z,55.37
2023-05-08T19:46:52.371Z,55.25
2023-05-08T19:49:21.150Z,55.26
2023-05-08T19:51:50.143Z,55.38
2023-05-08T19:54:18.649Z,54.14
2023-05-08T19:56:47.345Z,54.47
2023-05-08T19:59:16.999Z,54.67
2023-05-08T20:01:45.973Z,54.81
2023-05-08T20:04:14.948Z,54.88
2023-05-08T20:06:44.428Z,54.44
2023-05-08T20:09:14.704Z,53.99
2023-05-08T20:11:43.434Z,54.61
2023-05-08T20:14:13.285Z,53.87
2023-05-08T20:16:43.520Z,53.74
2023-05-08T20:19:13.373Z,53.55
2023-05-08T20:21:54.497Z,53.49
2023-05-08T20:24:30.256Z,53.57
2023-05-08T20:27:00.958Z,53.64
2023-05-08T20:29:30.548Z,54.89
2023-05-08T20:31:59.720Z,55.07
2023-05-08T20:34:30.249Z,55.92
2023-05-08T20:36:59.908Z,54.60
2023-05-08T20:39:29.076Z,54.71
2023-05-08T20:41:58.201Z,54.58
2023-05-08T20:44:27.832Z,55.82
2023-05-08T20:46:57.937Z,55.90
2023-05-08T20:49:28.790Z,55.26
2023-05-08T20:52:00.818Z,55.03
2023-05-08T20:54:33.533Z,55.35
2023-05-08T20:57:02.573Z,54.09
2023-05-08T20:59:32.111Z,54.08
2023-05-08T21:02:01.309Z,54.09
2023-05-08T21:04:30.525Z,55.06
2023-05-08T21:06:59.301Z,55.12
2023-05-08T21:09:27.713Z,55.86
2023-05-08T21:11:56.486Z,55.35
2023-05-08T21:14:25.102Z,54.00
2023-05-08T21:16:54.607Z,53.85
2023-05-08T21:19:24.417Z,54.60
2023-05-08T21:21:53.632Z,53.93
2023-05-08T21:24:26.034Z,54.42
2023-05-08T21:26:56.682Z,54.09
2023-05-08T21:29:25.399Z,54.99
2023-05-08T21:31:54.046Z,54.30
2023-05-08T21:34:22.936Z,54.14
2023-05-08T21:36:51.476Z,54.47
2023-05-08T21:39:20.312Z,54.01
2023-05-08T21:41:48.930Z,54.00
2023-05-08T21:44:17.475Z,53.86
2023-05-08T21:46:46.658Z,54.40
2023-05-08T21:49:14.993Z,55.25
2023-05-08T21:51:45.197Z,55.09
2023-05-08T21:54:16.959Z,54.91
2023-05-08T21:56:46.239Z,54.20
2023-05-08T21:59:14.912Z,54.52
2023-05-08T22:01:43.415Z,55.01
2023-05-08T22:04:12.488Z,55.22
2023-05-08T22:06:43.699Z,55.01
2023-05-08T22:09:14.203Z,54.80
2023-05-08T22:11:43.216Z,54.46
2023-05-08T22:14:19.452Z,54.74
2023-05-08T22:16:50.492Z,53.71
2023-05-08T22:19:18.748Z,53.69
2023-05-08T22:21:47.306Z,53.92
2023-05-08T22:24:16.807Z,53.87
2023-05-08T22:26:46.746Z,53.78
2023-05-08T22:29:17.341Z,54.32
2023-05-08T22:31:51.426Z,53.76
2023-05-08T22:34:21.441Z,53.63
2023-05-08T22:36:50.303Z,53.48
2023-05-08T22:39:18.648Z,53.47
2023-05-08T22:41:51.547Z,53.41
2023-05-08T22:44:21.192Z,53.73
2023-05-08T22:51:18.551Z,54.26
2023-05-08T22:53:49.003Z,54.94
2023-05-08T22:56:18.391Z,53.84
2023-05-08T22:58:48.028Z,53.46
2023-05-08T23:01:18.511Z,53.92
2023-05-08T23:03:47.200Z,53.39
2023-05-08T23:06:17.096Z,53.11
2023-05-08T23:10:25.158Z,54.13
2023-05-08T23:12:54.439Z,53.79
2023-05-08T23:15:22.895Z,53.57
2023-05-08T23:17:51.416Z,53.68
2023-05-08T23:20:19.933Z,53.82
2023-05-08T23:22:49.064Z,53.39
2023-05-08T23:25:18.818Z,53.53
2023-05-08T23:27:48.490Z,53.75
2023-05-08T23:30:18.057Z,53.61
2023-05-08T23:32:47.281Z,53.59
2023-05-08T23:35:17.301Z,53.32
2023-05-08T23:37:46.953Z,53.10
2023-05-08T23:40:16.388Z,53.21
2023-05-08T23:42:45.998Z,54.30
2023-05-08T23:45:16.501Z,53.98
2023-05-08T23:47:48.859Z,53.86
2023-05-08T23:50:17.890Z,53.80
2023-05-08T23:52:47.189Z,53.64
2023-05-08T23:55:16.332Z,53.38
2023-05-08T23:57:45.273Z,52.77
